Time;durP1;ratioP1;P1;durP2;ratioP2;P2;SDS_P1;SDS_P2;PMS_P1;PMS_P2;Temp;Humidity;BMP_temperature;BMP_pressure;BME280_temperature;BME280_humidity;BME280_pressure;Samples;Min_cycle;Max_cycle;Signal;HPM_P1;HPM_P2
2022/09/24 00:00:43;;;;;;;8.15;6.43;;;;;;;8.37;100.00;100063.94;6279613;22;20011;-79
2022/09/24 00:03:09;;;;;;;8.25;6.20;;;;;;;8.31;100.00;100053.81;6252712;22;20730;-79
2022/09/24 00:05:40;;;;;;;8.85;6.35;;;;;;;8.28;100.00;100047.13;6305976;22;20482;-81
2022/09/24 00:08:07;;;;;;;8.45;6.20;;;;;;;8.34;100.00;100061.25;6303839;22;20456;-79
2022/09/24 00:10:37;;;;;;;6.97;6.15;;;;;;;8.35;100.00;100055.31;6277595;22;20011;-79
2022/09/24 00:13:03;;;;;;;8.00;6.18;;;;;;;8.33;100.00;100054.19;6276562;22;20019;-79
2022/09/24 00:15:28;;;;;;;8.18;6.35;;;;;;;8.28;100.00;100049.09;6304164;22;20410;-79
2022/09/24 00:17:54;;;;;;;10.52;7.00;;;;;;;8.22;100.00;100045.25;6304893;22;20053;-79
2022/09/24 00:20:21;;;;;;;8.40;6.45;;;;;;;8.18;100.00;100050.81;6304735;22;20046;-79
2022/09/24 00:22:46;;;;;;;7.72;6.38;;;;;;;8.05;100.00;100044.34;6276935;22;20037;-79
2022/09/24 00:27:55;;;;;;;;;;;;;;;8.18;100.00;100061.88;6305498;22;20011;-79
2022/09/24 00:30:21;;;;;;;8.32;6.63;;;;;;;8.20;100.00;100067.78;6303708;22;19911;-79
2022/09/24 00:32:46;;;;;;;9.18;6.00;;;;;;;8.20;100.00;100056.72;6302570;22;20378;-80
2022/09/24 00:35:12;;;;;;;7.68;6.53;;;;;;;8.16;100.00;100053.25;6304396;22;20011;-79
2022/09/24 00:37:37;;;;;;;10.50;6.90;;;;;;;8.10;100.00;100049.38;6304930;22;20453;-84
2022/09/24 00:40:04;;;;;;;9.07;7.30;;;;;;;8.04;100.00;100045.56;6303666;22;20029;-85
2022/09/24 00:42:31;;;;;;;7.80;6.45;;;;;;;7.95;100.00;100037.00;6278005;22;20094;-83
2022/09/24 00:44:57;;;;;;;8.30;6.78;;;;;;;7.93;100.00;100033.88;6278047;22;20332;-84
2022/09/24 00:47:26;;;;;;;8.02;6.28;;;;;;;7.96;100.00;100028.31;6276334;22;20062;-84
2022/09/24 00:50:05;;;;;;;8.32;6.70;;;;;;;7.98;100.00;100033.41;6275956;22;20015;-84
2022/09/24 00:52:31;;;;;;;8.73;6.78;;;;;;;7.83;100.00;100007.22;6277439;22;20076;-78
2022/09/24 00:54:57;;;;;;;7.68;6.63;;;;;;;7.83;100.00;100018.28;6303023;22;20343;-78
2022/09/24 00:57:23;;;;;;;10.23;6.93;;;;;;;7.86;100.00;100020.19;6303980;22;20083;-78
2022/09/24 00:59:49;;;;;;;8.20;6.03;;;;;;;7.90;100.00;100029.19;6278064;22;20061;-80
2022/09/24 01:08:20;;;;;;;8.95;7.00;;;;;;;7.93;100.00;100020.84;6303811;22;20448;-78
2022/09/24 01:11:16;;;;;;;8.32;7.07;;;;;;;7.90;100.00;100026.44;6225099;22;20007;-78
2022/09/24 01:13:58;;;;;;;8.00;6.88;;;;;;;7.84;100.00;100017.06;6249700;22;20023;-77
2022/09/24 01:16:44;;;;;;;8.80;6.22;;;;;;;7.85;100.00;100024.13;6252023;22;20037;-77
2022/09/24 01:19:28;;;;;;;10.20;7.18;;;;;;;7.79;100.00;100014.78;6250508;22;20011;-77
2022/09/24 01:21:56;;;;;;;10.13;5.97;;;;;;;7.77;100.00;100011.66;6276375;22;20030;-84
2022/09/24 01:24:36;;;;;;;8.20;6.50;;;;;;;7.77;100.00;100025.44;6226255;22;20014;-84
2022/09/24 01:27:06;;;;;;;8.40;6.38;;;;;;;7.76;100.00;100018.38;6225287;22;20022;-85
2022/09/24 01:29:40;;;;;;;8.68;6.45;;;;;;;7.74;100.00;100016.03;6252061;22;20100;-84
2022/09/24 01:32:23;;;;;;;8.20;6.93;;;;;;;7.71;100.00;100010.56;6250188;22;20076;-84
2022/09/24 01:34:59;;;;;;;9.05;6.22;;;;;;;7.64;100.00;100005.94;6249998;22;20026;-85
2022/09/24 01:37:27;;;;;;;9.32;6.75;;;;;;;7.63;100.00;100009.13;6224954;22;20045;-84
2022/09/24 01:39:54;;;;;;;8.35;6.78;;;;;;;7.56;100.00;100006.47;6250253;22;20023;-77
2022/09/24 01:42:21;;;;;;;7.93;6.05;;;;;;;7.50;100.00;100001.41;6273818;22;20057;-77
2022/09/24 01:44:46;;;;;;;7.60;6.22;;;;;;;7.47;100.00;100007.00;6224500;22;20421;-77
2022/09/24 01:47:18;;;;;;;9.98;7.15;;;;;;;7.44;100.00;100003.06;6274022;22;20061;-77
2022/09/24 01:49:43;;;;;;;7.35;5.90;;;;;;;7.46;100.00;100011.72;6248204;22;20011;-77
2022/09/24 01:52:14;;;;;;;8.25;6.75;;;;;;;7.44;100.00;100000.31;6249979;22;20015;-77
2022/09/24 01:54:41;;;;;;;9.30;7.25;;;;;;;7.42;100.00;99996.41;6248293;22;20015;-77
2022/09/24 01:57:12;;;;;;;8.30;6.53;;;;;;;7.34;100.00;100004.00;6222654;22;20007;-85
2022/09/24 02:00:00;;;;;;;9.23;6.40;;;;;;;7.38;100.00;99998.44;6251452;22;20030;-84
2022/09/24 02:02:33;;;;;;;8.18;6.80;;;;;;;7.37;100.00;99991.34;6251921;22;20011;-84
2022/09/24 02:05:20;;;;;;;8.20;6.20;;;;;;;7.41;100.00;99998.38;6225592;22;20015;-83
2022/09/24 02:07:51;;;;;;;9.05;6.30;;;;;;;7.45;100.00;99985.31;6251222;22;20129;-84
2022/09/24 02:10:19;;;;;;;8.38;6.63;;;;;;;7.42;100.00;99986.16;6304608;22;20011;-84
2022/09/24 02:12:52;;;;;;;8.25;6.97;;;;;;;7.45;100.00;99979.78;6276481;22;20064;-85
2022/09/24 02:15:38;;;;;;;8.43;6.72;;;;;;;7.44;100.00;99978.22;6225587;22;20019;-77
2022/09/24 02:18:07;;;;;;;8.68;6.25;;;;;;;7.44;100.00;99974.72;6251619;22;20019;-77
2022/09/24 02:20:34;;;;;;;7.93;6.10;;;;;;;7.45;100.00;99976.25;6252586;22;20419;-77
2022/09/24 02:23:01;;;;;;;9.02;6.30;;;;;;;7.43;100.00;99967.63;6224633;22;20007;-77
2022/09/24 02:25:36;;;;;;;7.90;6.35;;;;;;;7.46;100.00;99973.09;6277176;22;20023;-77
2022/09/24 02:28:02;;;;;;;7.85;6.35;;;;;;;7.39;100.00;99956.66;6251360;22;20065;-77
2022/09/24 02:30:28;;;;;;;7.75;6.22;;;;;;;7.40;100.00;99947.16;6250160;22;20021;-77
2022/09/24 02:32:55;;;;;;;7.10;6.00;;;;;;;7.38;100.00;99952.31;6276238;22;20007;-77
2022/09/24 02:35:20;;;;;;;9.48;6.70;;;;;;;7.40;100.00;99958.19;6250134;22;20041;-85
2022/09/24 02:37:46;;;;;;;9.52;7.07;;;;;;;7.40;100.00;99952.66;6223970;22;20007;-85
2022/09/24 02:40:13;;;;;;;8.38;6.65;;;;;;;7.40;100.00;99952.66;6250917;22;20311;-85
2022/09/24 02:42:41;;;;;;;9.93;6.53;;;;;;;7.37;100.00;99950.75;6276247;22;20015;-85
2022/09/24 02:45:07;;;;;;;9.30;6.78;;;;;;;7.34;100.00;99948.03;6225258;22;20015;-85
2022/09/24 02:47:32;;;;;;;8.98;6.30;;;;;;;7.35;100.00;99946.84;6251639;22;20397;-86
2022/09/24 02:49:59;;;;;;;8.50;6.05;;;;;;;7.38;100.00;99944.03;6276649;22;20047;-84
2022/09/24 02:52:24;;;;;;;9.65;6.43;;;;;;;7.41;100.00;99943.19;6224182;22;20025;-85
2022/09/24 02:54:50;;;;;;;9.88;7.40;;;;;;;7.37;100.00;99941.69;6252093;22;20015;-78
2022/09/24 02:57:17;;;;;;;6.47;5.78;;;;;;;7.36;100.00;99940.91;6250906;22;20399;-85
2022/09/24 02:59:43;;;;;;;7.88;6.45;;;;;;;7.34;100.00;99946.06;6225562;22;20019;-85
2022/09/24 03:02:09;;;;;;;9.25;6.45;;;;;;;7.31;100.00;99944.16;6250183;22;20026;-85
2022/09/24 03:04:34;;;;;;;8.65;6.43;;;;;;;7.31;100.00;99938.63;6225079;22;20003;-85
2022/09/24 03:07:00;;;;;;;7.80;6.32;;;;;;;7.30;100.00;99939.81;6275431;22;20074;-85
2022/09/24 03:09:25;;;;;;;7.45;6.45;;;;;;;7.31;100.00;99937.84;6277351;22;20011;-85
2022/09/24 03:11:51;;;;;;;8.38;7.00;;;;;;;7.30;100.00;99925.25;6224118;22;20440;-85
2022/09/24 03:14:17;;;;;;;8.75;6.40;;;;;;;7.28;100.00;99927.66;6250724;22;20022;-85
2022/09/24 03:16:42;;;;;;;8.05;6.57;;;;;;;7.31;100.00;99921.28;6251027;22;20000;-78
2022/09/24 03:19:08;;;;;;;8.23;6.70;;;;;;;7.28;100.00;99919.38;6249754;22;20026;-78
2022/09/24 03:21:33;;;;;;;8.13;6.35;;;;;;;7.28;100.00;99922.88;6275853;22;20008;-78
2022/09/24 03:24:03;;;;;;;12.73;6.93;;;;;;;7.25;100.00;99925.72;6248815;22;20018;-77
2022/09/24 03:26:28;;;;;;;8.85;6.53;;;;;;;7.25;100.00;99932.00;6276259;22;20006;-77
2022/09/24 03:28:54;;;;;;;8.65;7.10;;;;;;;7.26;100.00;99933.56;6225339;22;20015;-78
2022/09/24 03:31:23;;;;;;;9.02;6.75;;;;;;;7.25;100.00;99922.94;6226466;22;20229;-78
2022/09/24 03:33:48;;;;;;;9.73;6.72;;;;;;;7.25;100.00;99928.47;6225384;22;20015;-77
2022/09/24 03:36:23;;;;;;;8.70;6.95;;;;;;;7.27;100.00;99921.34;6225707;22;20008;-78
2022/09/24 03:38:51;;;;;;;9.98;7.03;;;;;;;7.25;100.00;99918.22;6274127;22;20441;-78
2022/09/24 03:41:16;;;;;;;9.77;6.45;;;;;;;7.22;100.00;99918.28;6223427;22;20017;-78
2022/09/24 03:43:42;;;;;;;9.02;7.00;;;;;;;7.19;100.00;99932.91;6274341;22;20086;-78
2022/09/24 03:46:09;;;;;;;10.02;7.05;;;;;;;7.17;100.00;99933.31;6225132;22;20023;-78
2022/09/24 03:48:35;;;;;;;10.02;7.00;;;;;;;7.14;100.00;99925.88;6275881;22;20420;-78
2022/09/24 03:51:05;;;;;;;7.97;6.60;;;;;;;7.12;100.00;99927.50;6251331;22;20014;-86
2022/09/24 03:53:31;;;;;;;8.63;6.68;;;;;;;7.13;100.00;99921.56;6224509;22;20038;-78
2022/09/24 03:55:58;;;;;;;10.80;7.28;;;;;;;7.07;100.00;99916.94;6225808;22;20069;-78
2022/09/24 03:58:24;;;;;;;8.90;7.28;;;;;;;7.07;100.00;99925.97;6252347;22;20078;-78
2022/09/24 04:00:53;;;;;;;8.90;6.95;;;;;;;7.11;100.00;99918.44;6225257;22;20035;-79
2022/09/24 04:03:23;;;;;;;9.65;6.70;;;;;;;7.09;100.00;99909.78;6275793;22;20104;-78
2022/09/24 04:05:50;;;;;;;9.40;6.40;;;;;;;7.04;100.00;99907.50;6276728;22;20011;-79
2022/09/24 04:08:18;;;;;;;9.57;6.88;;;;;;;7.07;100.00;99906.69;6248596;22;20369;-78
2022/09/24 04:10:47;;;;;;;8.77;6.85;;;;;;;7.01;100.00;99891.78;6248949;22;20018;-86
2022/09/24 04:13:13;;;;;;;8.10;6.45;;;;;;;6.96;100.00;99897.75;6249068;22;20388;-79
2022/09/24 04:15:39;;;;;;;8.77;6.63;;;;;;;6.99;100.00;99910.75;6249371;22;19999;-78
2022/09/24 04:18:05;;;;;;;8.77;6.45;;;;;;;7.00;100.00;99904.78;6249102;22;20096;-79
2022/09/24 04:20:31;;;;;;;9.38;6.85;;;;;;;6.99;100.00;99899.72;6248787;22;20011;-78
2022/09/24 04:22:58;;;;;;;8.80;6.63;;;;;;;6.98;100.00;99900.91;6249381;22;20061;-79
2022/09/24 04:25:25;;;;;;;9.25;6.60;;;;;;;7.00;100.00;99902.03;6223211;22;20011;-79
2022/09/24 04:27:56;;;;;;;8.57;5.88;;;;;;;7.02;100.00;99899.66;6275074;22;20012;-78
2022/09/24 04:30:23;;;;;;;9.15;6.35;;;;;;;7.01;100.00;99897.28;6224262;22;20038;-85
2022/09/24 04:32:50;;;;;;;7.80;6.40;;;;;;;6.99;100.00;99894.19;6247974;22;20349;-86
2022/09/24 04:35:17;;;;;;;8.57;6.68;;;;;;;6.97;100.00;99899.31;6250116;22;20015;-86
2022/09/24 04:37:43;;;;;;;7.25;5.78;;;;;;;6.97;100.00;99897.34;6250384;22;20012;-86
2022/09/24 04:40:11;;;;;;;8.15;6.57;;;;;;;6.97;100.00;99897.34;6224719;22;20575;-86
2022/09/24 04:42:40;;;;;;;7.97;6.05;;;;;;;7.00;100.00;99906.75;6272678;22;20014;-86
2022/09/24 04:45:07;;;;;;;6.80;5.57;;;;;;;6.98;100.00;99887.09;6275744;22;20012;-86
2022/09/24 04:47:33;;;;;;;8.25;5.82;;;;;;;6.98;100.00;99903.66;6250407;22;20387;-86
2022/09/24 04:50:01;;;;;;;8.65;6.43;;;;;;;6.96;100.00;99906.81;6273365;22;20068;-84
2022/09/24 04:52:31;;;;;;;8.88;6.40;;;;;;;6.97;100.00;99896.56;6222553;22;20338;-86
2022/09/24 04:54:58;;;;;;;7.40;5.90;;;;;;;6.98;100.00;99892.63;6245134;22;20054;-85
2022/09/24 04:57:25;;;;;;;7.65;6.10;;;;;;;7.05;100.00;99900.78;6272971;22;20038;-86
2022/09/24 04:59:50;;;;;;;7.20;5.85;;;;;;;7.05;100.00;99911.81;6249491;22;20015;-85
2022/09/24 05:02:17;;;;;;;8.70;6.00;;;;;;;7.05;100.00;99903.53;6250062;22;20512;-86
2022/09/24 05:04:42;;;;;;;9.20;5.45;;;;;;;7.11;100.00;99904.66;6248322;22;20047;-86
2022/09/24 05:07:09;;;;;;;8.27;6.30;;;;;;;7.08;100.00;99897.19;6193449;22;1260433;-79
2022/09/24 05:09:35;;;;;;;8.77;6.10;;;;;;;7.11;100.00;99907.41;6274779;22;20030;-79
2022/09/24 05:12:01;;;;;;;7.40;6.05;;;;;;;7.06;100.00;99902.34;6224855;22;20011;-79
2022/09/24 05:14:26;;;;;;;7.72;6.53;;;;;;;7.13;100.00;99910.50;6248179;22;20011;-79
2022/09/24 05:16:52;;;;;;;11.30;6.40;;;;;;;7.08;100.00;99913.72;6275334;22;20011;-80
2022/09/24 05:19:18;;;;;;;7.35;6.13;;;;;;;7.06;100.00;99916.16;6251022;22;20490;-78
2022/09/24 05:21:43;;;;;;;8.18;6.03;;;;;;;7.13;100.00;99913.28;6276593;22;20042;-78
2022/09/24 05:24:09;;;;;;;7.90;6.30;;;;;;;7.15;100.00;99908.13;6272991;22;20041;-75
2022/09/24 05:29:18;;;;;;;8.38;6.43;;;;;;;7.26;100.00;99911.50;6275332;22;20015;-78
2022/09/24 05:31:44;;;;;;;8.00;6.20;;;;;;;7.25;100.00;99904.41;6249275;22;20074;-79
2022/09/24 05:34:09;;;;;;;9.05;6.43;;;;;;;7.33;100.00;99914.16;6275414;22;19999;-79
2022/09/24 05:36:35;;;;;;;8.57;6.10;;;;;;;7.35;100.00;99917.28;6253004;22;20387;-79
2022/09/24 05:39:00;;;;;;;7.43;6.32;;;;;;;7.34;100.00;99912.97;6276380;22;20007;-79
2022/09/24 05:41:26;;;;;;;7.18;6.05;;;;;;;7.32;100.00;99920.84;6251024;22;20038;-79
2022/09/24 05:43:52;;;;;;;7.47;6.05;;;;;;;7.27;100.00;99915.06;6253203;22;19999;-80
2022/09/24 05:46:17;;;;;;;7.07;6.07;;;;;;;7.29;100.00;99918.94;6253568;22;20011;-87
2022/09/24 05:48:42;;;;;;;9.95;6.57;;;;;;;7.30;100.00;99915.00;6252333;22;20084;-87
2022/09/24 05:51:08;;;;;;;7.90;6.63;;;;;;;7.32;100.00;99915.34;6227901;22;20015;-87
2022/09/24 05:53:34;;;;;;;8.10;5.97;;;;;;;7.35;100.00;99920.03;6251753;22;20019;-88
2022/09/24 05:55:59;;;;;;;8.75;6.30;;;;;;;7.45;100.00;99905.28;6226854;22;20432;-88
2022/09/24 05:58:25;;;;;;;7.95;6.35;;;;;;;7.50;100.00;99904.81;6251812;22;20039;-88
2022/09/24 06:00:51;;;;;;;7.85;6.18;;;;;;;7.63;100.00;99909.75;6252323;22;20007;-88
2022/09/24 06:03:18;;;;;;;7.80;6.15;;;;;;;7.63;100.00;99904.22;6277363;22;20034;-89
2022/09/24 06:05:45;;;;;;;9.18;6.40;;;;;;;7.63;100.00;99909.75;6252360;22;20019;-89
2022/09/24 06:08:11;;;;;;;8.27;6.18;;;;;;;7.68;100.00;99923.84;6251491;22;20333;-88
2022/09/24 06:10:37;;;;;;;8.00;6.10;;;;;;;7.75;100.00;99922.94;6252141;22;20011;-88
2022/09/24 06:13:03;;;;;;;7.75;5.90;;;;;;;7.65;100.00;99926.66;6251216;22;20172;-87
2022/09/24 06:15:29;;;;;;;8.05;6.20;;;;;;;7.57;100.00;99922.44;6227070;22;20007;-88
2022/09/24 06:17:55;;;;;;;7.90;5.90;;;;;;;7.59;100.00;99931.88;6225105;22;20011;-88
2022/09/24 06:20:21;;;;;;;7.47;6.25;;;;;;;7.67;100.00;99933.31;6201850;22;20007;-88
2022/09/24 06:22:47;;;;;;;7.68;6.10;;;;;;;7.75;100.00;99937.53;6251593;22;20065;-80
2022/09/24 06:25:12;;;;;;;7.05;5.60;;;;;;;7.78;100.00;99933.13;6277624;22;20358;-80
2022/09/24 06:27:38;;;;;;;7.47;6.00;;;;;;;7.83;100.00;99938.19;6277065;22;20476;-88
2022/09/24 06:30:04;;;;;;;9.00;5.20;;;;;;;7.90;100.00;99935.28;6251712;22;20011;-89
2022/09/24 06:32:30;;;;;;;7.13;5.68;;;;;;;7.95;100.00;99938.38;6277016;22;20015;-89
2022/09/24 06:34:55;;;;;;;7.90;5.95;;;;;;;7.91;100.00;99928.56;6277369;22;20098;-89
2022/09/24 06:37:21;;;;;;;8.40;6.53;;;;;;;7.97;100.00;99935.94;6251780;22;20016;-87
2022/09/24 06:39:47;;;;;;;8.00;5.68;;;;;;;8.14;100.00;99939.59;6251593;22;20027;-88
2022/09/24 06:42:12;;;;;;;7.32;5.72;;;;;;;8.23;100.00;99937.06;6226622;22;20011;-87
2022/09/24 06:44:38;;;;;;;7.10;5.55;;;;;;;8.35;100.00;99939.22;6252105;22;20014;-79
2022/09/24 06:47:03;;;;;;;8.23;5.90;;;;;;;8.42;100.00;99933.56;6252139;22;20018;-80
2022/09/24 06:49:29;;;;;;;7.65;6.10;;;;;;;8.57;100.00;99938.81;6226207;22;20094;-80
2022/09/24 06:51:54;;;;;;;8.05;6.10;;;;;;;8.67;100.00;99926.75;6251542;22;20318;-80
2022/09/24 06:54:21;;;;;;;7.70;5.60;;;;;;;8.60;100.00;99937.97;6251448;22;20322;-80
2022/09/24 06:56:47;;;;;;;7.18;6.15;;;;;;;8.48;100.00;99941.38;6252071;22;20031;-79
2022/09/24 06:59:13;;;;;;;7.22;6.00;;;;;;;8.40;100.00;99933.22;6250987;22;20069;-80
2022/09/24 07:01:38;;;;;;;10.05;5.60;;;;;;;8.33;100.00;99936.09;6224656;22;20450;-79
2022/09/24 07:04:04;;;;;;;8.35;5.93;;;;;;;8.41;100.00;99932.00;6250618;22;20267;-79
2022/09/24 07:07:28;;;;;;;7.65;5.85;;;;;;;8.52;100.00;99933.78;6252126;22;19999;-79
2022/09/24 07:09:14;;;;;;;6.65;5.55;;;;;;;8.74;100.00;99943.97;6281967;22;20040;-80
2022/09/24 07:11:40;;;;;;;8.57;6.80;;;;;;;8.88;100.00;99929.06;6251959;22;20011;-80
2022/09/24 07:14:06;;;;;;;7.40;5.50;;;;;;;8.97;100.00;99951.41;6251853;22;20010;-80
2022/09/24 07:16:31;;;;;;;7.00;5.55;;;;;;;9.04;100.00;99944.94;6251721;22;20011;-80
2022/09/24 07:18:57;;;;;;;7.38;5.47;;;;;;;9.14;100.00;99939.16;6250550;22;20011;-80
2022/09/24 07:21:22;;;;;;;9.13;5.85;;;;;;;9.30;100.00;99950.25;6253582;22;20493;-88
2022/09/24 07:23:48;;;;;;;7.82;5.90;;;;;;;9.49;100.00;99950.63;6226315;22;20102;-79
2022/09/24 07:26:13;;;;;;;8.80;5.20;;;;;;;9.52;100.00;99952.53;6252168;22;20488;-80
2022/09/24 07:28:39;;;;;;;8.02;5.45;;;;;;;9.58;100.00;99950.81;6227066;22;20102;-80
2022/09/24 07:31:04;;;;;;;7.80;5.90;;;;;;;9.63;100.00;99953.81;6275938;22;19999;-79
2022/09/24 07:33:30;;;;;;;6.22;5.50;;;;;;;9.77;100.00;99941.63;6252261;22;20042;-79
2022/09/24 07:35:56;;;;;;;6.78;5.78;;;;;;;10.01;100.00;99936.66;6251754;22;20027;-80
2022/09/24 07:38:21;;;;;;;6.93;5.60;;;;;;;10.26;100.00;99929.28;6252053;22;20649;-80
2022/09/24 07:40:47;;;;;;;7.57;5.57;;;;;;;10.54;100.00;99943.56;6252650;22;20090;-80
2022/09/24 07:43:13;;;;;;;6.78;4.82;;;;;;;10.78;100.00;99911.56;6227032;22;20433;-88
2022/09/24 07:45:39;;;;;;;6.85;5.50;;;;;;;11.01;100.00;99936.25;6252632;22;20019;-89
2022/09/24 07:48:05;;;;;;;8.40;5.55;;;;;;;11.09;100.00;99923.69;6226761;22;20014;-89
2022/09/24 07:50:33;;;;;;;7.00;5.47;;;;;;;11.29;100.00;99936.59;6227408;22;20098;-89
2022/09/24 07:53:01;;;;;;;7.88;5.18;;;;;;;11.58;99.99;99926.13;6251888;22;20037;-89
2022/09/24 07:55:27;;;;;;;6.88;5.50;;;;;;;11.55;100.00;99921.47;6227852;22;20014;-87
2022/09/24 07:57:53;;;;;;;8.10;5.53;;;;;;;11.52;98.53;99934.28;6252425;22;20011;-89
2022/09/24 08:00:20;;;;;;;8.15;5.40;;;;;;;11.56;99.68;99928.59;6278805;22;20043;-90
2022/09/24 08:02:47;;;;;;;5.90;5.03;;;;;;;11.81;99.72;99922.25;6252290;22;20015;-90
2022/09/24 08:05:14;;;;;;;7.05;5.40;;;;;;;11.97;98.13;99922.84;6251997;22;20049;-86
2022/09/24 08:07:40;;;;;;;6.75;4.82;;;;;;;12.18;97.71;99918.56;6252430;22;20433;-89
2022/09/24 08:10:06;;;;;;;7.90;5.57;;;;;;;12.47;95.47;99909.97;6251739;22;20015;-91
2022/09/24 08:12:32;;;;;;;6.90;5.03;;;;;;;12.44;94.67;99913.69;6251743;22;20022;-88
2022/09/24 08:14:57;;;;;;;6.68;4.65;;;;;;;12.53;94.84;99916.53;6226835;22;20038;-88
2022/09/24 08:17:23;;;;;;;6.38;4.85;;;;;;;12.76;94.64;99918.84;6251839;22;20498;-89
2022/09/24 08:19:50;;;;;;;5.82;4.63;;;;;;;12.91;93.05;99907.94;6252254;22;20086;-78
2022/09/24 08:22:16;;;;;;;7.03;4.82;;;;;;;12.89;91.80;99894.50;6252355;22;20345;-79
2022/09/24 08:24:42;;;;;;;5.93;4.70;;;;;;;12.95;93.29;99914.91;6277894;22;20011;-80
2022/09/24 08:27:08;;;;;;;6.57;4.28;;;;;;;13.06;92.64;99920.84;6277448;22;20004;-80
2022/09/24 08:29:33;;;;;;;5.53;4.35;;;;;;;13.13;91.09;99913.50;6251616;22;20007;-81
2022/09/24 08:31:59;;;;;;;6.13;4.97;;;;;;;13.24;91.65;99916.63;6251972;22;20412;-79
2022/09/24 08:34:25;;;;;;;5.65;4.88;;;;;;;13.22;91.79;99917.09;6225927;22;20015;-79
2022/09/24 08:36:50;;;;;;;6.78;4.32;;;;;;;13.58;90.37;99916.47;6250662;22;20342;-79
2022/09/24 08:39:16;;;;;;;6.85;4.68;;;;;;;13.59;90.35;99911.66;6277106;22;19999;-79
2022/09/24 08:41:55;;;;;;;7.88;4.85;;;;;;;13.61;90.15;99901.59;6251918;22;20453;-79
2022/09/24 08:47:42;;;;;;;7.05;4.55;;;;;;;14.21;86.56;99896.25;6300809;22;20068;-79
2022/09/24 08:50:10;;;;;;;7.85;4.53;;;;;;;14.58;84.81;99897.00;6164849;22;20029;-79
2022/09/24 08:52:42;;;;;;;7.70;4.85;;;;;;;14.48;84.19;99903.84;6303707;22;20021;-79
2022/09/24 08:55:30;;;;;;;7.80;5.03;;;;;;;14.46;84.43;99895.16;6303802;22;20015;-79
2022/09/24 08:58:31;;;;;;;9.10;4.93;;;;;;;14.64;84.00;99886.75;6277197;22;20444;-87
2022/09/24 09:01:10;;;;;;;6.60;4.75;;;;;;;14.62;84.08;99892.03;6205115;22;20015;-87
2022/09/24 09:03:41;;;;;;;6.47;4.63;;;;;;;14.81;82.69;99893.53;6277006;22;20409;-89
2022/09/24 09:06:29;;;;;;;6.43;4.50;;;;;;;15.01;84.01;99906.22;6225462;22;20441;-87
2022/09/24 09:09:18;;;;;;;6.75;4.40;;;;;;;15.07;82.99;99896.72;6250119;22;20007;-88
2022/09/24 09:11:56;;;;;;;5.75;4.15;;;;;;;15.05;81.42;99902.00;6275929;22;20514;-88
2022/09/24 09:14:33;;;;;;;5.90;4.75;;;;;;;15.07;81.98;99893.16;6276717;22;20037;-91
2022/09/24 09:17:05;;;;;;;6.07;4.78;;;;;;;15.07;82.25;99888.34;6304356;22;20449;-82
2022/09/24 09:19:35;;;;;;;5.70;4.32;;;;;;;15.21;82.06;99895.28;6225450;22;20452;-80
2022/09/24 09:22:22;;;;;;;7.13;4.50;;;;;;;15.55;80.79;99896.84;6249508;22;20064;-79
2022/09/24 09:24:50;;;;;;;6.68;4.70;;;;;;;15.67;80.60;99898.66;6225421;22;20449;-79
2022/09/24 09:27:17;;;;;;;5.45;4.45;;;;;;;15.94;80.45;99886.50;6251031;22;20341;-79
2022/09/24 09:29:46;;;;;;;5.63;3.83;;;;;;;16.54;78.17;99878.50;6249928;22;20144;-80
2022/09/24 09:32:37;;;;;;;8.20;4.40;;;;;;;16.53;75.38;99885.38;6250486;22;20019;-80
2022/09/24 09:35:11;;;;;;;7.65;4.68;;;;;;;16.66;74.34;99874.69;6250591;22;20632;-88
2022/09/24 09:37:55;;;;;;;6.35;4.13;;;;;;;16.75;73.50;99871.03;6276558;22;20015;-88
2022/09/24 09:40:58;;;;;;;5.45;4.18;;;;;;;16.83;74.22;99877.78;6303544;22;20015;-87
2022/09/24 09:43:25;;;;;;;6.53;4.20;;;;;;;17.04;73.33;99859.03;6251430;22;20026;-89
2022/09/24 09:45:54;;;;;;;6.75;4.30;;;;;;;17.14;71.39;99852.06;6249696;22;20499;-89
2022/09/24 09:48:21;;;;;;;4.38;3.70;;;;;;;17.07;72.16;99842.00;6276109;22;20082;-88
2022/09/24 09:50:48;;;;;;;4.85;3.75;;;;;;;17.07;72.64;99855.25;6251302;22;20021;-89
2022/09/24 09:53:22;;;;;;;6.63;4.22;;;;;;;17.22;72.54;99850.41;6225730;22;20098;-80
2022/09/24 09:55:58;;;;;;;5.35;3.72;;;;;;;17.58;71.89;99847.13;6226091;22;20015;-80
2022/09/24 09:58:32;;;;;;;4.32;3.33;;;;;;;17.77;69.92;99841.22;6276526;22;20007;-80
2022/09/24 10:01:12;;;;;;;5.53;3.60;;;;;;;18.15;67.64;99843.72;6225973;22;20457;-81
2022/09/24 10:03:43;;;;;;;4.22;3.80;;;;;;;18.08;68.04;99850.53;6276417;22;20026;-81
2022/09/24 10:06:12;;;;;;;4.80;3.55;;;;;;;18.16;68.65;99840.41;6276855;22;20226;-79
2022/09/24 10:08:39;;;;;;;4.68;3.63;;;;;;;18.50;65.95;99829.53;6250811;22;20750;-79
2022/09/24 10:11:06;;;;;;;5.38;3.17;;;;;;;18.76;66.65;99830.31;6276693;22;20018;-82
2022/09/24 10:13:32;;;;;;;6.07;3.42;;;;;;;19.19;64.71;99827.56;6276355;22;20011;-78
2022/09/24 10:16:02;;;;;;;4.38;3.53;;;;;;;18.78;63.59;99812.94;6276582;22;20011;-89
2022/09/24 10:18:31;;;;;;;5.75;3.28;;;;;;;18.80;64.58;99824.47;6251487;22;20349;-87
2022/09/24 10:21:01;;;;;;;4.72;2.88;;;;;;;19.05;64.72;99818.00;6277914;22;20078;-86
2022/09/24 10:23:34;;;;;;;5.30;3.28;;;;;;;19.12;63.51;99825.97;6228210;22;20015;-87
2022/09/24 10:26:01;;;;;;;4.05;3.13;;;;;;;18.95;64.38;99830.72;6277217;22;20011;-86
2022/09/24 10:31:25;;;;;;;4.85;3.33;;;;;;;18.37;65.39;99827.09;6283250;22;20070;-80
2022/09/24 10:33:54;;;;;;;5.43;3.38;;;;;;;18.18;65.15;99823.09;6226994;22;20060;-88
2022/09/24 10:36:22;;;;;;;4.13;3.28;;;;;;;18.42;65.73;99820.78;6278439;22;20037;-88
2022/09/24 10:38:48;;;;;;;5.93;3.70;;;;;;;18.61;64.51;99836.03;6252987;22;20082;-89
2022/09/24 10:41:16;;;;;;;4.22;3.08;;;;;;;18.45;65.56;99821.81;6252767;22;20450;-88
2022/09/24 10:43:50;;;;;;;4.30;3.45;;;;;;;18.51;65.19;99825.47;6227535;22;20019;-87
2022/09/24 10:46:30;;;;;;;4.47;3.60;;;;;;;18.46;64.89;99828.97;6226702;22;20018;-87
2022/09/24 10:49:34;;;;;;;5.40;3.55;;;;;;;18.27;65.35;99814.50;6278228;22;20019;-88
2022/09/24 10:52:08;;;;;;;4.55;3.53;;;;;;;18.28;66.75;99829.31;6229606;22;20050;-79
2022/09/24 10:54:55;;;;;;;4.93;3.15;;;;;;;18.45;67.31;99828.19;6278153;22;20470;-78
2022/09/24 10:57:30;;;;;;;6.85;3.70;;;;;;;18.46;66.64;99826.16;6227191;22;20504;-79
2022/09/24 11:00:18;;;;;;;4.95;3.63;;;;;;;18.56;66.11;99828.31;6252471;22;20014;-78
2022/09/24 11:02:52;;;;;;;4.20;3.30;;;;;;;18.59;65.88;99820.97;6252161;22;20464;-78
2022/09/24 11:05:22;;;;;;;6.47;3.63;;;;;;;18.56;65.79;99821.97;6277695;22;20023;-78
2022/09/24 11:08:03;;;;;;;4.65;3.50;;;;;;;18.34;66.77;99811.25;6227266;22;20014;-78
2022/09/24 11:11:01;;;;;;;7.22;3.60;;;;;;;18.37;66.85;99813.06;6278054;22;20352;-86
2022/09/24 11:13:36;;;;;;;5.13;3.50;;;;;;;18.04;67.38;99818.31;6262035;22;20509;-78
2022/09/24 11:16:07;;;;;;;4.68;3.53;;;;;;;18.14;66.95;99814.09;6278054;22;20019;-78
2022/09/24 11:18:56;;;;;;;4.63;3.40;;;;;;;18.13;67.95;99812.56;6277460;22;20015;-78
2022/09/24 11:21:42;;;;;;;5.82;3.75;;;;;;;18.38;66.79;99809.00;6207086;22;20106;-78
2022/09/24 11:24:41;;;;;;;5.32;3.50;;;;;;;18.70;66.25;99803.41;6252260;22;20090;-80
2022/09/24 11:27:19;;;;;;;4.15;3.50;;;;;;;19.27;64.72;99800.50;6277871;22;20015;-79
2022/09/24 11:30:06;;;;;;;5.72;3.70;;;;;;;19.69;63.16;99791.28;6305174;22;20008;-79
2022/09/24 11:33:00;;;;;;;4.88;3.40;;;;;;;19.02;64.55;99797.28;6252113;22;20019;-88
2022/09/24 11:35:29;;;;;;;4.30;3.13;;;;;;;19.40;65.77;99792.41;6247829;22;20019;-86
2022/09/24 11:38:01;;;;;;;4.55;3.92;;;;;;;19.74;63.66;99791.28;6250713;22;20019;-85
2022/09/24 11:40:42;;;;;;;4.43;3.42;;;;;;;20.00;62.17;99782.69;6249408;22;20019;-86
2022/09/24 11:43:34;;;;;;;5.00;3.47;;;;;;;20.03;61.83;99787.28;6275466;22;20015;-86
2022/09/24 11:46:24;;;;;;;6.07;3.72;;;;;;;19.45;61.91;99783.25;6280045;22;20098;-87
2022/09/24 11:49:26;;;;;;;6.63;3.90;;;;;;;19.43;64.35;99774.53;6275800;22;20069;-87
2022/09/24 11:51:59;;;;;;;6.10;3.80;;;;;;;19.41;63.53;99766.56;6303244;22;20149;-87
2022/09/24 11:55:22;;;;;;;5.43;3.40;;;;;;;19.59;63.05;99781.50;6275853;22;20011;-89
2022/09/24 11:57:53;;;;;;;3.90;3.20;;;;;;;19.72;62.55;99768.53;6153510;23;20048;-86
2022/09/24 12:00:19;;;;;;;7.35;3.90;;;;;;;19.87;61.59;99757.06;6128318;23;20061;-87
2022/09/24 12:02:58;;;;;;;5.68;3.65;;;;;;;19.64;62.04;99761.09;6215646;22;20050;-89